« 趣味的航空路誌改訂情報 2015/9/17 thu | トップページ | ’15航空祭inKOMATSU【ブルー前日予行】 小松飛行場 2015/9/20 sun »

2015/09/18

三沢基地航空祭2015【フライト編2】 三沢飛行場 2015/9/13 sun

フライト編午後の部 生憎雨はシトシトながら降り続けています。

20150913_rjsm_60bi

午前の列線を離れて、展示機をみながらブルー列線にたどり着きました。

20150913_rjsm_61af90817

飴ちゃんは、ヤリます。

20150913_rjsm_62af90817

F16機動飛行は、13FS機

METAR RJSM 130400Z 34005KT 8000 -SHRA FEW008 BKN045 BKN070 19/18 Q1011 RMK 2ST008 5SC045 7AC070 A2986 2ST008 OVR FLD

20150913_rjsm_63af90817

AF90-817 F-16CM FS13 SCOCH51

20150913_rjsm_64af90817

雨の中でも素晴らしいフライトでした。

20150913_rjsm_65ja221j

JAL2163 RJOO-RJSM JA221J ERJ-170STD

20150913_rjsm_66bi

いよいよブルーインパルスですが、天候不良で地上走行だけに。

20150913_rjsm_67bi

そう言えば、ブルーを見るのは5月の岩国以来。その時も雨だった。

20150913_rjsm_68bi

フライトは来週に期待しよう。

20150913_rjsm_69bi465731

46-5731 T-4 11SQ BlueImpuls1

20150913_rjsm_70bi

滑走路中央まで進んで・・・

20150913_rjsm_71bi

スモーク!!!

20150913_rjsm_72f138510

13-8510 F-2A 8SQ A15

最後のフライトは、最後になる?黒豹のフライト

METAR RJSM 130500Z 01004KT 9999 -SHRA FEW004 SCT006 BKN020 19/18 Q1011 RMK 1ST004 4ST006 5CU020 A2986 1ST004 NE

20150913_rjsm_73ja221j

JAL2164 RJSM-RJOO JA221J ERJ-170STD

20150913_rjsm_74f138510

当初3機編隊でのフライトでしたが、天候不良のため1機のみのフライトに変更。

20150913_rjsm_75f138510

米軍F-16に負けずに飛び回ります。

20150913_rjsm_76f138510

でも、天候は益々悪くなってきて・・・

20150913_rjsm_77f138510

最後は、PARでの着陸となりました。お疲れ様でした。

20150913_rjsm_78c921082

92-1082 C-130H 401SQ C82

お昼に着陸したC130は、黒豹の嫁入り先に先発・・

METAR RJSM 130611Z 33008KT 7000 -SHRA FEW006 BKN008 BKN018 18/17 Q1011 RMK 2ST006 5ST008 7CU018 A2987 2ST006 SW-NW

これにて基地を後にしたので、帰投編は、ありません。

|

« 趣味的航空路誌改訂情報 2015/9/17 thu | トップページ | ’15航空祭inKOMATSU【ブルー前日予行】 小松飛行場 2015/9/20 sun »

BI」カテゴリの記事

三沢飛行場」カテゴリの記事

コメント

コメントを書く



(ウェブ上には掲載しません)


コメントは記事投稿者が公開するまで表示されません。



トラックバック


この記事へのトラックバック一覧です: 三沢基地航空祭2015【フライト編2】 三沢飛行場 2015/9/13 sun:

« 趣味的航空路誌改訂情報 2015/9/17 thu | トップページ | ’15航空祭inKOMATSU【ブルー前日予行】 小松飛行場 2015/9/20 sun »